createdAt,value
2022-12-20T00:01:11.487Z,64.70
2022-12-20T00:03:17.241Z,51.90
2022-12-20T00:05:22.348Z,59.60
2022-12-20T00:07:27.360Z,56.08
2022-12-20T00:09:34.941Z,56.00
2022-12-20T00:11:42.163Z,54.38
2022-12-20T00:13:49.790Z,54.88
2022-12-20T00:16:05.945Z,53.33
2022-12-20T00:18:11.157Z,59.50
2022-12-20T00:20:16.834Z,56.40
2022-12-20T00:22:22.268Z,62.15
2022-12-20T00:24:27.429Z,53.03
2022-12-20T00:26:38.127Z,51.00
2022-12-20T00:28:45.946Z,52.05
2022-12-20T01:30:23.688Z,55.33
2022-12-20T01:32:28.757Z,53.42
2022-12-20T01:34:33.723Z,62.65
2022-12-20T01:36:41.048Z,59.00
2022-12-20T01:38:46.190Z,57.17
2022-12-20T01:40:51.446Z,57.33
2022-12-20T01:42:56.421Z,56.33
2022-12-20T01:45:02.814Z,60.55
2022-12-20T01:47:11.312Z,52.35
2022-12-20T01:49:21.766Z,59.80
2022-12-20T01:51:28.453Z,52.40
2022-12-20T01:53:34.598Z,61.00
2022-12-20T01:55:40.474Z,60.50
2022-12-20T01:57:51.751Z,58.65
2022-12-20T02:28:51.182Z,56.92
2022-12-20T02:31:00.570Z,52.47
2022-12-20T02:33:10.235Z,54.25
2022-12-20T02:35:22.323Z,53.45
2022-12-20T02:37:27.699Z,59.72
2022-12-20T02:39:35.661Z,56.35
2022-12-20T02:41:46.119Z,49.30
2022-12-20T02:44:13.296Z,59.88
2022-12-20T02:46:23.827Z,50.50
2022-12-20T02:48:34.435Z,54.65
2022-12-20T02:50:43.760Z,54.53
2022-12-20T02:52:49.468Z,51.95
2022-12-20T02:54:57.128Z,49.42
2022-12-20T02:57:11.928Z,53.15
2022-12-20T02:59:23.052Z,51.60
2022-12-20T03:01:34.553Z,55.22
2022-12-20T03:03:37.841Z,57.00
2022-12-20T03:07:57.510Z,51.92
2022-12-20T03:10:03.751Z,53.55
2022-12-20T03:12:09.969Z,51.67
2022-12-20T03:14:15.557Z,53.13
2022-12-20T03:16:21.240Z,50.58
2022-12-20T03:18:29.242Z,54.58
2022-12-20T03:20:34.286Z,57.47
2022-12-20T03:22:40.260Z,56.65
2022-12-20T03:24:45.670Z,53.70
2022-12-20T03:26:51.740Z,61.58
2022-12-20T03:28:59.515Z,56.28
2022-12-20T03:31:06.172Z,53.50
2022-12-20T03:33:19.164Z,54.15
2022-12-20T03:35:28.415Z,55.15
2022-12-20T03:37:33.683Z,51.90
2022-12-20T03:39:41.665Z,54.63
2022-12-20T03:41:47.134Z,50.67
2022-12-20T03:43:56.023Z,44.28
2022-12-20T03:46:01.905Z,50.95
2022-12-20T03:48:12.929Z,52.65
2022-12-20T03:50:18.119Z,47.65
2022-12-20T03:52:25.767Z,52.47
2022-12-20T03:54:31.202Z,45.80
2022-12-20T03:56:47.485Z,50.17
2022-12-20T03:58:52.437Z,50.15
2022-12-20T04:01:00.131Z,48.03
2022-12-20T04:03:18.684Z,45.10
2022-12-20T04:05:24.041Z,53.42
2022-12-20T04:07:31.996Z,52.78
2022-12-20T04:09:37.183Z,50.15
2022-12-20T04:11:47.291Z,48.00
2022-12-20T04:13:55.772Z,43.47
2022-12-20T04:16:01.454Z,45.50
2022-12-20T04:18:10.382Z,46.72
2022-12-20T04:20:21.817Z,46.03
2022-12-20T04:22:40.366Z,45.95
2022-12-20T04:24:45.625Z,49.05
2022-12-20T04:27:00.619Z,49.58
2022-12-20T04:29:05.738Z,44.75
2022-12-20T04:31:11.826Z,45.63
2022-12-20T04:33:17.561Z,53.08
2022-12-20T04:35:23.573Z,46.45
2022-12-20T04:37:28.705Z,48.25
2022-12-20T04:39:37.728Z,50.97
2022-12-20T04:42:11.932Z,55.60
2022-12-20T04:44:16.917Z,53.67
2022-12-20T04:46:23.660Z,51.30
2022-12-20T04:48:56.546Z,50.58
2022-12-20T04:50:58.124Z,47.70
2022-12-20T04:53:16.671Z,56.15
2022-12-20T04:55:25.824Z,51.28
2022-12-20T04:57:31.323Z,57.17
2022-12-20T04:59:37.662Z,52.90
2022-12-20T05:01:43.199Z,56.83
2022-12-20T05:03:52.944Z,69.82
2022-12-20T05:05:58.028Z,55.33
2022-12-20T05:08:03.740Z,56.45
2022-12-20T05:10:10.714Z,59.28
2022-12-20T05:12:19.997Z,54.80
2022-12-20T05:14:25.210Z,58.70
2022-12-20T05:16:30.888Z,51.00
2022-12-20T05:18:36.544Z,54.72
2022-12-20T05:20:44.791Z,61.20
2022-12-20T05:23:02.488Z,50.60
2022-12-20T05:25:27.346Z,50.85
2022-12-20T05:27:36.481Z,56.53
2022-12-20T05:29:42.331Z,56.60
2022-12-20T05:31:48.446Z,52.80
2022-12-20T05:33:54.260Z,49.30
2022-12-20T05:36:00.901Z,54.22
2022-12-20T05:38:05.872Z,53.25
2022-12-20T05:40:13.136Z,52.33
2022-12-20T05:42:20.667Z,50.83
2022-12-20T05:44:31.708Z,58.00
2022-12-20T05:46:37.666Z,54.22
2022-12-20T05:48:48.672Z,49.88
2022-12-20T05:50:54.016Z,50.72
2022-12-20T05:53:11.815Z,58.65
2022-12-20T05:55:24.569Z,53.65
2022-12-20T05:57:31.619Z,51.20
2022-12-20T05:59:39.622Z,60.20
2022-12-20T06:01:49.865Z,62.90
2022-12-20T06:03:55.595Z,63.65
2022-12-20T06:06:01.170Z,67.88
2022-12-20T06:08:11.052Z,57.38
2022-12-20T06:10:16.310Z,56.63
2022-12-20T06:12:31.932Z,51.03
2022-12-20T06:14:39.882Z,57.13
2022-12-20T06:16:44.939Z,58.78
2022-12-20T06:18:51.225Z,57.22
2022-12-20T06:20:57.184Z,51.85
2022-12-20T06:23:03.142Z,53.42
2022-12-20T06:25:15.622Z,57.88
2022-12-20T06:27:23.259Z,57.15
2022-12-20T06:29:39.880Z,60.83
2022-12-20T06:31:48.473Z,58.60
2022-12-20T06:33:55.050Z,87.57
2022-12-20T06:36:02.440Z,351.00
2022-12-20T06:38:07.962Z,242.95
2022-12-20T06:40:17.180Z,135.25
2022-12-20T06:42:22.294Z,78.70
2022-12-20T06:44:27.885Z,68.60
2022-12-20T06:46:35.647Z,57.72
2022-12-20T06:48:41.613Z,52.85
2022-12-20T06:50:55.269Z,57.55
2022-12-20T06:55:07.783Z,55.55
2022-12-20T06:57:17.308Z,65.88
2022-12-20T06:59:26.012Z,56.85
2022-12-20T07:01:31.338Z,57.70
2022-12-20T07:03:39.437Z,57.78
2022-12-20T07:05:45.040Z,58.25
2022-12-20T07:07:50.131Z,60.35
2022-12-20T07:09:55.527Z,56.15
2022-12-20T07:12:01.081Z,64.30
2022-12-20T07:14:06.197Z,56.95
2022-12-20T07:16:11.423Z,52.38
2022-12-20T07:18:16.795Z,58.78
2022-12-20T07:20:24.635Z,56.80
2022-12-20T07:22:29.897Z,60.40
2022-12-20T07:24:34.874Z,55.97
2022-12-20T07:26:39.783Z,54.38
2022-12-20T07:28:47.042Z,52.28
2022-12-20T07:30:52.503Z,54.80
2022-12-20T07:32:57.441Z,52.50
2022-12-20T07:35:02.473Z,59.80
2022-12-20T07:37:10.512Z,63.90
2022-12-20T07:39:15.438Z,62.30
2022-12-20T07:41:21.043Z,66.75
2022-12-20T07:43:25.945Z,69.95
2022-12-20T07:45:31.072Z,78.13
2022-12-20T07:47:36.795Z,80.53
2022-12-20T07:49:41.883Z,83.20
2022-12-20T07:51:51.515Z,82.25
2022-12-20T07:54:05.275Z,74.05
2022-12-20T07:56:13.260Z,62.88
2022-12-20T07:58:21.700Z,60.08
2022-12-20T08:00:27.141Z,60.65
2022-12-20T08:02:39.703Z,65.10
2022-12-20T08:04:45.338Z,53.47
2022-12-20T08:06:50.971Z,56.53
2022-12-20T08:09:03.448Z,57.58
2022-12-20T08:11:11.510Z,62.10
2022-12-20T08:13:16.748Z,62.90
2022-12-20T08:15:24.686Z,67.25
2022-12-20T08:17:29.617Z,67.68
2022-12-20T08:19:34.721Z,66.43
2022-12-20T08:21:39.868Z,84.05
2022-12-20T08:23:44.910Z,63.03
2022-12-20T08:25:52.393Z,58.30
2022-12-20T08:27:57.470Z,50.75
2022-12-20T08:30:02.532Z,56.58
2022-12-20T08:32:07.823Z,52.65
2022-12-20T08:34:14.301Z,55.15
2022-12-20T08:36:19.412Z,54.10
2022-12-20T08:38:24.315Z,63.22
2022-12-20T08:40:29.698Z,53.15
2022-12-20T08:42:37.320Z,52.58
2022-12-20T08:44:42.273Z,50.33
2022-12-20T08:46:47.548Z,52.33
2022-12-20T08:48:52.474Z,53.38
2022-12-20T08:51:01.085Z,46.75
2022-12-20T08:53:06.029Z,47.67
2022-12-20T08:55:13.123Z,50.28
2022-12-20T08:57:18.419Z,48.67
2022-12-20T08:59:26.753Z,48.45
2022-12-20T09:01:33.955Z,44.92
2022-12-20T09:03:40.538Z,49.83
2022-12-20T09:05:49.774Z,52.95
2022-12-20T09:07:55.722Z,48.42
2022-12-20T09:10:00.733Z,47.42
2022-12-20T09:12:06.053Z,46.60
2022-12-20T09:14:11.756Z,42.25
2022-12-20T09:16:23.325Z,49.40
2022-12-20T09:18:28.279Z,38.20
2022-12-20T09:20:33.281Z,40.60
2022-12-20T09:22:38.213Z,40.90
2022-12-20T09:24:43.278Z,36.75
2022-12-20T09:26:50.310Z,36.67
2022-12-20T09:28:57.430Z,37.97
2022-12-20T09:31:02.837Z,41.33
2022-12-20T09:33:10.858Z,36.80
2022-12-20T09:35:22.622Z,37.15
2022-12-20T09:37:30.898Z,34.63
2022-12-20T09:39:35.765Z,40.33
2022-12-20T09:41:44.148Z,42.67
2022-12-20T09:43:49.616Z,36.33
2022-12-20T09:45:59.976Z,35.03
2022-12-20T09:48:06.763Z,34.13
2022-12-20T09:50:19.050Z,33.92
2022-12-20T09:52:50.542Z,33.95
2022-12-20T09:55:10.064Z,30.35
2022-12-20T09:57:26.081Z,31.60
2022-12-20T09:59:36.964Z,27.10
2022-12-20T10:01:48.890Z,24.83
2022-12-20T10:03:54.734Z,28.70
2022-12-20T10:06:11.764Z,29.05
2022-12-20T10:08:28.109Z,30.67
2022-12-20T10:10:55.053Z,32.67
2022-12-20T10:13:16.311Z,34.75
2022-12-20T10:15:25.884Z,32.38
2022-12-20T10:17:48.623Z,32.58
2022-12-20T10:20:24.365Z,28.80
2022-12-20T10:22:40.777Z,31.92
2022-12-20T10:24:56.074Z,32.15
2022-12-20T10:27:07.966Z,28.27
2022-12-20T10:29:12.900Z,29.30
2022-12-20T10:31:21.022Z,30.95
2022-12-20T10:33:27.539Z,31.77
2022-12-20T10:35:37.134Z,30.50
2022-12-20T10:38:09.835Z,27.75
2022-12-20T10:41:01.352Z,29.88
2022-12-20T10:42:56.707Z,29.17
2022-12-20T10:45:01.857Z,27.67
2022-12-20T10:47:23.944Z,31.90
2022-12-20T10:49:37.330Z,27.15
2022-12-20T10:51:55.611Z,30.52
2022-12-20T10:54:06.743Z,27.50
2022-12-20T10:56:22.397Z,30.42
2022-12-20T10:58:37.995Z,38.90
2022-12-20T11:00:43.530Z,32.03
2022-12-20T11:03:08.700Z,31.55
2022-12-20T11:05:26.684Z,27.25
2022-12-20T11:07:35.959Z,30.17
2022-12-20T11:09:57.872Z,29.77
2022-12-20T11:12:08.915Z,31.25
2022-12-20T11:14:18.200Z,30.25
2022-12-20T11:16:30.266Z,29.90
2022-12-20T11:18:49.508Z,37.70
2022-12-20T11:21:11.123Z,31.02
2022-12-20T11:23:30.049Z,31.83
2022-12-20T11:26:01.274Z,29.95
2022-12-20T11:28:27.015Z,28.10
2022-12-20T11:30:41.604Z,31.15
2022-12-20T11:33:13.879Z,36.67
2022-12-20T11:35:25.069Z,35.00
2022-12-20T11:37:36.821Z,38.08
2022-12-20T11:39:53.830Z,38.08
2022-12-20T11:42:12.699Z,39.90
2022-12-20T11:44:28.956Z,42.25
2022-12-20T11:46:52.615Z,42.45
2022-12-20T11:49:19.859Z,35.35
2022-12-20T11:51:27.366Z,34.95
2022-12-20T11:53:39.160Z,36.67
2022-12-20T11:55:49.796Z,33.47
2022-12-20T11:58:21.009Z,33.70
2022-12-20T12:00:27.650Z,34.75
2022-12-20T12:02:41.144Z,31.60
2022-12-20T12:04:53.208Z,33.40
2022-12-20T12:07:04.799Z,33.00
2022-12-20T12:09:24.025Z,28.77
2022-12-20T12:12:07.344Z,28.92
2022-12-20T12:14:07.092Z,30.00
2022-12-20T12:16:20.071Z,27.55
2022-12-20T12:18:30.099Z,31.45
2022-12-20T12:20:45.882Z,28.73
2022-12-20T12:22:57.678Z,31.67
2022-12-20T12:25:11.610Z,29.88
2022-12-20T12:27:28.974Z,31.05
2022-12-20T12:29:38.093Z,32.10
2022-12-20T12:31:49.090Z,29.90
2022-12-20T12:34:10.176Z,29.60
2022-12-20T12:36:35.828Z,32.55
2022-12-20T12:39:18.455Z,37.33
2022-12-20T12:41:50.506Z,33.85
2022-12-20T12:43:58.719Z,30.50
2022-12-20T12:46:15.004Z,31.63
2022-12-20T12:48:27.131Z,30.88
2022-12-20T12:50:37.724Z,31.02
2022-12-20T12:52:51.899Z,33.10
2022-12-20T12:54:56.916Z,30.15
2022-12-20T12:57:05.181Z,32.58
2022-12-20T12:59:43.949Z,31.77
2022-12-20T13:01:57.261Z,33.65
2022-12-20T13:04:28.942Z,31.17
2022-12-20T13:07:22.445Z,32.03
2022-12-20T13:09:45.311Z,34.87
2022-12-20T13:11:57.584Z,32.45
2022-12-20T13:14:35.734Z,34.17
2022-12-20T13:17:10.917Z,29.48
2022-12-20T13:19:17.507Z,33.47
2022-12-20T13:21:40.179Z,32.05
2022-12-20T13:23:45.312Z,31.40
2022-12-20T13:25:53.553Z,35.75
2022-12-20T13:28:49.020Z,30.63
2022-12-20T13:31:34.022Z,31.35
2022-12-20T13:33:45.598Z,34.50
2022-12-20T13:36:28.123Z,31.65
2022-12-20T13:38:56.463Z,30.55
2022-12-20T13:41:04.362Z,32.47
2022-12-20T13:43:19.735Z,32.10
2022-12-20T13:45:26.342Z,30.83
2022-12-20T13:47:51.292Z,31.35
2022-12-20T13:49:56.247Z,34.10
2022-12-20T13:52:27.014Z,31.85
2022-12-20T13:54:33.996Z,33.15
2022-12-20T13:56:47.533Z,29.20
2022-12-20T13:58:52.778Z,35.78
2022-12-20T14:01:08.318Z,32.20
2022-12-20T14:03:24.873Z,27.85
2022-12-20T14:05:35.900Z,29.40
2022-12-20T14:07:44.508Z,29.40
2022-12-20T14:09:57.654Z,28.70
2022-12-20T14:12:08.816Z,29.40
2022-12-20T14:14:16.725Z,25.05
2022-12-20T14:16:22.750Z,32.67
2022-12-20T14:18:29.183Z,29.92
2022-12-20T14:20:36.698Z,25.95
2022-12-20T14:22:49.896Z,26.10
2022-12-20T14:27:00.756Z,29.25
2022-12-20T14:29:06.650Z,29.83
2022-12-20T14:31:28.314Z,32.00
2022-12-20T14:33:38.486Z,34.13
2022-12-20T14:35:51.133Z,38.65
2022-12-20T14:38:02.353Z,40.15
2022-12-20T14:40:21.284Z,42.58
2022-12-20T14:42:29.861Z,40.53
2022-12-20T14:44:35.270Z,31.77
2022-12-20T14:46:46.927Z,32.35
2022-12-20T14:49:16.892Z,29.13
2022-12-20T14:51:24.370Z,27.52
2022-12-20T15:52:52.030Z,33.33
2022-12-20T15:54:57.803Z,32.20
2022-12-20T15:57:08.236Z,34.97
2022-12-20T15:59:48.821Z,34.30
2022-12-20T16:01:42.230Z,30.52
2022-12-20T16:03:47.980Z,38.25
2022-12-20T16:05:53.942Z,37.78
2022-12-20T16:08:01.431Z,30.63
2022-12-20T16:10:10.731Z,33.53
2022-12-20T16:12:19.025Z,39.70
2022-12-20T16:14:24.808Z,30.60
2022-12-20T16:16:32.673Z,31.70
2022-12-20T16:18:37.675Z,35.83
2022-12-20T16:20:42.987Z,33.42
2022-12-20T16:22:48.510Z,33.55
2022-12-20T16:24:56.044Z,33.05
2022-12-20T16:27:01.000Z,31.35
2022-12-20T16:29:07.123Z,32.50
2022-12-20T16:31:22.655Z,37.60
2022-12-20T16:33:27.960Z,36.20
2022-12-20T16:35:36.310Z,36.60
2022-12-20T16:37:41.314Z,35.83
2022-12-20T16:39:46.966Z,31.63
2022-12-20T16:41:54.456Z,37.95
2022-12-20T16:44:02.103Z,33.45
2022-12-20T16:46:07.147Z,34.88
2022-12-20T16:48:12.442Z,34.83
2022-12-20T16:50:19.190Z,39.20
2022-12-20T16:52:25.223Z,34.85
2022-12-20T16:54:30.153Z,34.72
2022-12-20T16:56:35.768Z,31.95
2022-12-20T16:59:17.143Z,32.55
2022-12-20T17:01:14.801Z,34.03
2022-12-20T17:03:21.903Z,38.35
2022-12-20T17:05:30.711Z,39.85
2022-12-20T17:07:41.213Z,35.45
2022-12-20T17:09:46.619Z,38.00
2022-12-20T17:11:51.894Z,39.72
2022-12-20T17:14:00.268Z,45.60
2022-12-20T17:16:05.376Z,41.10
2022-12-20T17:18:11.941Z,48.30
2022-12-20T17:20:18.024Z,46.30
2022-12-20T17:24:42.509Z,44.28
2022-12-20T17:26:47.439Z,52.45
2022-12-20T17:28:52.916Z,53.88
2022-12-20T17:31:07.782Z,53.35
2022-12-20T17:33:17.120Z,64.13
2022-12-20T17:35:30.497Z,58.88
2022-12-20T17:37:35.476Z,51.55
2022-12-20T17:39:40.555Z,48.33
2022-12-20T17:41:47.237Z,59.55
2022-12-20T17:43:52.791Z,51.15
2022-12-20T17:46:00.908Z,58.17
2022-12-20T17:48:06.282Z,52.28
2022-12-20T17:50:12.648Z,55.58
2022-12-20T17:52:18.444Z,48.03
2022-12-20T17:54:36.827Z,50.97
2022-12-20T17:56:50.024Z,50.63
2022-12-20T17:58:56.360Z,46.50
2022-12-20T18:01:03.901Z,47.20
2022-12-20T18:03:20.003Z,47.08
2022-12-20T18:05:34.428Z,49.10
2022-12-20T18:07:40.148Z,48.22
2022-12-20T18:09:48.459Z,41.00
2022-12-20T18:11:53.493Z,41.10
2022-12-20T18:14:02.309Z,48.78
2022-12-20T18:16:11.592Z,44.40
2022-12-20T18:18:16.816Z,42.30
2022-12-20T18:20:22.490Z,43.92
2022-12-20T18:22:27.458Z,46.55
2022-12-20T18:24:32.373Z,47.65
2022-12-20T18:26:37.329Z,51.00
2022-12-20T18:28:43.930Z,43.80
2022-12-20T18:30:48.835Z,44.75
2022-12-20T18:32:56.680Z,53.08
2022-12-20T18:35:01.665Z,44.10
2022-12-20T18:37:06.588Z,46.20
2022-12-20T18:39:15.036Z,39.70
2022-12-20T18:41:24.070Z,45.42
2022-12-20T18:43:31.502Z,48.10
2022-12-20T18:45:37.563Z,42.90
2022-12-20T18:47:42.557Z,49.75
2022-12-20T18:49:51.409Z,51.25
2022-12-20T18:51:57.308Z,41.25
2022-12-20T18:54:03.392Z,47.75
2022-12-20T18:56:11.527Z,49.70
2022-12-20T18:58:16.840Z,46.30
2022-12-20T19:00:23.965Z,60.08
2022-12-20T19:02:29.839Z,56.38
2022-12-20T19:04:34.905Z,55.60
2022-12-20T19:06:42.763Z,71.63
2022-12-20T19:08:48.814Z,65.57
2022-12-20T19:10:53.890Z,65.90
2022-12-20T19:13:03.879Z,67.50
2022-12-20T19:15:11.707Z,76.57
2022-12-20T19:17:17.043Z,57.80
2022-12-20T19:19:22.237Z,68.53
2022-12-20T19:21:30.395Z,58.40
2022-12-20T19:23:39.947Z,57.45
2022-12-20T19:25:44.892Z,56.78
2022-12-20T19:27:50.504Z,48.85
2022-12-20T19:29:55.722Z,45.88
2022-12-20T19:32:03.120Z,45.80
2022-12-20T19:34:13.366Z,46.15
2022-12-20T19:36:21.470Z,43.83
2022-12-20T19:38:26.448Z,42.80
2022-12-20T19:40:33.973Z,47.45
2022-12-20T19:42:38.918Z,38.92
2022-12-20T19:44:43.853Z,39.40
2022-12-20T19:46:51.916Z,39.67
2022-12-20T19:48:58.044Z,35.58
2022-12-20T19:51:10.084Z,35.25
2022-12-20T19:53:15.091Z,32.78
2022-12-20T19:55:20.167Z,30.73
2022-12-20T19:57:28.020Z,34.13
2022-12-20T19:59:33.823Z,36.05
2022-12-20T20:01:38.984Z,34.72
2022-12-20T20:03:44.927Z,34.72
2022-12-20T20:05:50.423Z,40.47
2022-12-20T20:07:55.970Z,39.08
2022-12-20T20:10:00.896Z,35.58
2022-12-20T20:12:06.374Z,35.00
2022-12-20T20:14:14.392Z,35.38
2022-12-20T20:16:22.470Z,41.40
2022-12-20T20:18:28.720Z,44.53
2022-12-20T20:20:34.935Z,37.15
2022-12-20T20:22:39.991Z,41.00
2022-12-20T20:24:45.207Z,38.45
2022-12-20T20:26:50.134Z,45.60
2022-12-20T20:28:55.933Z,38.63
2022-12-20T20:31:04.660Z,37.88
2022-12-20T20:33:10.154Z,36.90
2022-12-20T20:35:15.163Z,36.38
2022-12-20T20:37:20.259Z,39.45
2022-12-20T20:39:25.169Z,38.67
2022-12-20T20:41:30.162Z,34.47
2022-12-20T20:43:37.966Z,32.58
2022-12-20T20:45:43.257Z,35.63
2022-12-20T20:47:50.800Z,35.33
2022-12-20T20:49:55.752Z,36.35
2022-12-20T20:52:00.723Z,40.92
2022-12-20T20:54:06.120Z,35.90
2022-12-20T20:56:12.094Z,32.90
2022-12-20T20:58:17.028Z,37.90
2022-12-20T21:00:22.846Z,36.97
2022-12-20T21:02:27.948Z,35.22
2022-12-20T21:04:35.583Z,35.53
2022-12-20T21:06:42.198Z,39.75
2022-12-20T21:08:47.863Z,36.55
2022-12-20T21:10:53.845Z,38.40
2022-12-20T21:12:59.220Z,40.00
2022-12-20T21:17:29.436Z,38.22
2022-12-20T21:19:37.140Z,38.15
2022-12-20T21:21:42.351Z,43.55
2022-12-20T21:23:49.087Z,38.42
2022-12-20T21:25:59.309Z,35.97
2022-12-20T21:28:05.262Z,36.58
2022-12-20T21:30:12.057Z,42.83
2022-12-20T21:32:16.915Z,40.47
2022-12-20T21:34:22.890Z,41.10
2022-12-20T21:36:30.902Z,43.10
2022-12-20T21:38:36.177Z,41.78
2022-12-20T21:40:41.358Z,42.97
2022-12-20T21:42:46.520Z,43.92
2022-12-20T21:44:51.399Z,42.70
2022-12-20T21:46:56.342Z,45.15
2022-12-20T21:49:02.515Z,43.10
2022-12-20T21:51:10.499Z,39.08
2022-12-20T21:53:19.784Z,43.63
2022-12-20T21:55:25.046Z,39.20
2022-12-20T21:57:30.219Z,41.20
2022-12-20T21:59:35.084Z,46.95
2022-12-20T22:01:40.416Z,43.72
2022-12-20T22:03:46.335Z,45.67
2022-12-20T22:05:52.920Z,47.30
2022-12-20T22:07:57.755Z,43.75
2022-12-20T22:10:05.203Z,45.25
2022-12-20T22:12:10.061Z,46.20
2022-12-20T22:14:16.121Z,46.53
2022-12-20T22:16:26.109Z,43.58
2022-12-20T22:18:31.481Z,48.13
2022-12-20T22:20:37.128Z,51.55
2022-12-20T22:22:42.093Z,43.92
2022-12-20T22:24:47.016Z,45.25
2022-12-20T22:26:55.096Z,47.13
2022-12-20T22:29:03.388Z,47.67
2022-12-20T22:31:12.976Z,44.25
2022-12-20T22:33:17.885Z,47.10
2022-12-20T22:35:23.304Z,46.65
2022-12-20T22:37:29.849Z,44.42
2022-12-20T22:39:34.715Z,46.65
2022-12-20T22:41:39.894Z,43.75
2022-12-20T22:43:49.163Z,43.95
2022-12-20T22:45:59.976Z,45.70
2022-12-20T22:48:05.122Z,48.38
2022-12-20T22:50:12.972Z,43.65
2022-12-20T22:52:18.167Z,46.60
2022-12-20T22:54:23.009Z,44.38
2022-12-20T22:56:28.801Z,44.45
2022-12-20T22:58:34.639Z,41.83
2022-12-20T23:00:42.097Z,44.03
2022-12-20T23:02:47.191Z,44.20
2022-12-20T23:04:52.544Z,44.15
2022-12-20T23:06:57.365Z,44.08
2022-12-20T23:09:02.464Z,47.30
2022-12-20T23:11:29.255Z,47.13
2022-12-20T23:13:46.728Z,46.90
2022-12-20T23:15:54.873Z,50.63
2022-12-20T23:18:00.075Z,48.05
2022-12-20T23:20:17.635Z,49.33
2022-12-20T23:22:38.168Z,46.58
2022-12-20T23:24:43.136Z,51.03
2022-12-20T23:26:48.649Z,50.50
2022-12-20T23:28:53.777Z,47.28
2022-12-20T23:31:03.397Z,50.30
2022-12-20T23:33:09.364Z,54.10
2022-12-20T23:35:14.715Z,53.75
2022-12-20T23:37:20.101Z,49.58
2022-12-20T23:39:24.945Z,57.42
2022-12-20T23:41:30.525Z,61.28
2022-12-20T23:43:35.835Z,54.85
2022-12-20T23:45:40.718Z,54.42
2022-12-20T23:47:49.030Z,52.15
2022-12-20T23:49:54.278Z,54.95
2022-12-20T23:51:59.145Z,56.92
2022-12-20T23:54:04.088Z,51.80
2022-12-20T23:56:14.957Z,56.28
2022-12-20T23:58:19.845Z,52.53
